Time;durP1;ratioP1;P1;durP2;ratioP2;P2;SDS_P1;SDS_P2;PMS_P1;PMS_P2;Temp;Humidity;BMP_temperature;BMP_pressure;BME280_temperature;BME280_humidity;BME280_pressure;Samples;Min_cycle;Max_cycle;Signal;HPM_P1;HPM_P2
2022/10/04 00:00:43;;;;;;;4.18;1.77;;;;;;;8.93;100.00;101791.00;6021108;28;20037;-67
2022/10/04 00:04:00;;;;;;;7.47;1.75;;;;;;;9.08;100.00;101779.28;6002842;28;20038;-67
2022/10/04 00:06:59;;;;;;;8.18;2.00;;;;;;;9.09;100.00;101761.63;6002406;28;20042;-67
2022/10/04 00:10:12;;;;;;;4.28;2.20;;;;;;;8.90;100.00;101767.41;6002558;28;20034;-67
2022/10/04 00:13:23;;;;;;;6.85;2.50;;;;;;;8.99;100.00;101779.97;6001475;28;20049;-67
2022/10/04 00:16:26;;;;;;;5.47;1.75;;;;;;;8.96;100.00;101775.75;6015619;28;20053;-67
2022/10/04 00:19:44;;;;;;;6.82;1.95;;;;;;;8.84;100.00;101770.47;6026012;28;20046;-67
2022/10/04 00:23:18;;;;;;;9.80;2.95;;;;;;;9.00;100.00;101781.66;6025045;28;20046;-67
2022/10/04 00:26:35;;;;;;;6.97;1.90;;;;;;;9.13;100.00;101779.00;6013708;28;20034;-67
2022/10/04 00:29:33;;;;;;;8.75;1.73;;;;;;;9.19;100.00;101766.13;6025418;28;20482;-67
2022/10/04 00:32:40;;;;;;;3.58;1.63;;;;;;;9.23;100.00;101769.41;6025050;28;20046;-67
2022/10/04 00:35:44;;;;;;;9.43;2.03;;;;;;;9.36;100.00;101772.84;6012272;28;21039;-67
2022/10/04 00:38:39;;;;;;;7.22;2.10;;;;;;;9.41;100.00;101765.41;6002110;28;20390;-67
2022/10/04 00:41:46;;;;;;;4.32;1.50;;;;;;;9.44;100.00;101755.47;6001112;28;20030;-67
2022/10/04 00:44:53;;;;;;;6.07;2.17;;;;;;;9.63;100.00;101759.38;6001554;28;20376;-67
2022/10/04 00:48:02;;;;;;;4.53;1.52;;;;;;;9.74;100.00;101748.84;6001550;28;20462;-67
2022/10/04 00:51:03;;;;;;;7.85;2.13;;;;;;;9.73;100.00;101750.63;5984151;28;20034;-67
2022/10/04 00:54:16;;;;;;;7.78;1.98;;;;;;;9.91;100.00;101748.41;6000105;28;20034;-67
2022/10/04 00:57:22;;;;;;;3.35;1.60;;;;;;;9.96;100.00;101739.16;5998152;28;20038;-67
2022/10/04 01:00:18;;;;;;;5.07;2.30;;;;;;;10.03;100.00;101742.16;6002407;28;20106;-67
2022/10/04 01:03:18;;;;;;;5.45;1.55;;;;;;;10.07;100.00;101728.59;6016805;28;20639;-67
2022/10/04 01:06:14;;;;;;;5.15;1.70;;;;;;;10.03;100.00;101736.88;6001338;28;20054;-67
2022/10/04 01:09:11;;;;;;;5.15;1.90;;;;;;;9.70;100.00;101737.66;6014849;28;20347;-67
2022/10/04 01:12:12;;;;;;;8.13;2.00;;;;;;;9.64;100.00;101746.03;5999283;28;20062;-67
2022/10/04 01:15:11;;;;;;;8.68;1.65;;;;;;;9.79;100.00;101733.44;6000874;28;20463;-67
2022/10/04 01:18:08;;;;;;;5.63;1.42;;;;;;;9.47;100.00;101704.94;5995165;28;20027;-67
2022/10/04 01:21:07;;;;;;;6.90;1.80;;;;;;;9.57;100.00;101708.56;6000197;28;20074;-67
2022/10/04 01:24:05;;;;;;;4.72;1.80;;;;;;;9.54;100.00;101723.84;6001145;28;20471;-67
2022/10/04 01:27:00;;;;;;;5.45;1.50;;;;;;;9.49;100.00;101720.69;6010493;28;20038;-67
2022/10/04 01:29:57;;;;;;;5.68;1.90;;;;;;;9.38;100.00;101724.13;6001298;28;20474;-67
2022/10/04 01:32:52;;;;;;;6.20;2.15;;;;;;;9.41;100.00;101713.31;6000127;28;20046;-67
2022/10/04 01:35:47;;;;;;;8.07;2.40;;;;;;;9.40;100.00;101703.69;6000060;28;20074;-67
2022/10/04 01:38:43;;;;;;;10.40;2.27;;;;;;;9.42;100.00;101688.56;6015142;28;20574;-67
2022/10/04 01:41:45;;;;;;;5.10;1.58;;;;;;;9.42;100.00;101691.19;6003944;28;20765;-67
2022/10/04 01:45:17;;;;;;;7.03;2.05;;;;;;;9.52;100.00;101697.47;6014876;28;20038;-67
2022/10/04 01:48:18;;;;;;;;;;;;;;;9.65;100.00;101689.44;5994792;28;20027;-67
2022/10/04 01:51:25;;;;;;;6.40;1.73;;;;;;;9.62;100.00;101679.09;6008011;28;20262;-67
2022/10/04 01:54:30;;;;;;;5.57;1.80;;;;;;;9.64;100.00;101676.34;6017833;28;20031;-67
2022/10/04 01:57:34;;;;;;;5.95;2.03;;;;;;;9.49;100.00;101668.59;6000184;28;20109;-67
2022/10/04 02:00:30;;;;;;;6.05;1.80;;;;;;;9.56;100.00;101693.66;5999749;28;20390;-67
2022/10/04 02:03:33;;;;;;;6.85;1.80;;;;;;;9.48;100.00;101676.66;5998704;28;20027;-67
2022/10/04 02:06:35;;;;;;;4.28;1.83;;;;;;;9.60;100.00;101678.38;5999966;28;20044;-67
2022/10/04 02:09:33;;;;;;;6.80;1.83;;;;;;;9.70;100.00;101668.78;6000085;28;20058;-67
2022/10/04 02:12:32;;;;;;;5.35;1.88;;;;;;;9.68;100.00;101677.78;5998522;28;20045;-67
2022/10/04 02:15:28;;;;;;;5.72;2.22;;;;;;;9.59;100.00;101698.69;5998305;28;20534;-67
2022/10/04 02:18:24;;;;;;;3.85;1.80;;;;;;;9.63;100.00;101691.38;5998682;28;20039;-67
2022/10/04 02:21:21;;;;;;;3.05;1.45;;;;;;;9.62;100.00;101678.25;5999124;28;20122;-67
2022/10/04 02:24:16;;;;;;;4.57;2.08;;;;;;;9.50;100.00;101665.00;5999164;28;20022;-67
2022/10/04 02:27:13;;;;;;;2.97;1.40;;;;;;;9.64;100.00;101681.63;5998545;28;20494;-67
2022/10/04 02:30:10;;;;;;;7.18;2.08;;;;;;;9.66;100.00;101679.72;6020659;28;20385;-67
2022/10/04 02:33:06;;;;;;;5.65;2.30;;;;;;;9.81;100.00;101691.81;6021807;28;20093;-67
2022/10/04 02:36:01;;;;;;;5.25;2.22;;;;;;;9.77;100.00;101690.34;6000822;28;20043;-67
2022/10/04 02:38:59;;;;;;;13.70;2.67;;;;;;;9.77;100.00;101690.34;5998027;28;20410;-67
2022/10/04 02:42:16;;;;;;;4.72;1.90;;;;;;;9.72;100.00;101676.59;5998799;28;20261;-67
2022/10/04 02:45:18;;;;;;;6.72;2.00;;;;;;;9.82;100.00;101669.63;5998829;28;20027;-67
2022/10/04 02:48:35;;;;;;;10.25;2.90;;;;;;;9.71;100.00;101672.25;5999503;28;20126;-67
2022/10/04 02:51:32;;;;;;;7.20;2.35;;;;;;;9.92;100.00;101667.97;5998567;28;20714;-67
2022/10/04 02:54:51;;;;;;;6.07;1.90;;;;;;;9.70;100.00;101654.69;5998838;28;20089;-67
2022/10/04 02:57:48;;;;;;;8.20;2.22;;;;;;;9.74;100.00;101653.47;5999194;28;20034;-67
2022/10/04 03:00:48;;;;;;;7.70;2.05;;;;;;;9.76;100.00;101659.50;6000321;28;20026;-67
2022/10/04 03:03:44;;;;;;;8.52;2.13;;;;;;;9.70;100.00;101642.31;5997227;28;20031;-67
2022/10/04 03:06:40;;;;;;;7.38;1.83;;;;;;;9.76;100.00;101659.50;5998070;28;20374;-67
2022/10/04 03:09:36;;;;;;;4.32;1.75;;;;;;;9.76;100.00;101654.19;5997645;28;20038;-67
2022/10/04 03:12:32;;;;;;;4.55;2.03;;;;;;;9.77;100.00;101645.31;5998377;28;20530;-67
2022/10/04 03:15:28;;;;;;;7.97;2.10;;;;;;;9.79;100.00;101653.97;5998423;28;20086;-67
2022/10/04 03:18:23;;;;;;;13.75;1.73;;;;;;;9.90;100.00;101661.94;5999007;28;20459;-67
2022/10/04 03:21:20;;;;;;;5.33;1.80;;;;;;;9.88;100.00;101654.13;5997040;28;20393;-67
2022/10/04 03:24:30;;;;;;;6.55;1.67;;;;;;;9.87;100.00;101657.72;5997444;28;21110;-67
2022/10/04 03:27:32;;;;;;;6.75;1.55;;;;;;;9.82;100.00;101641.34;5998101;28;20117;-67
2022/10/04 03:30:30;;;;;;;5.57;1.60;;;;;;;9.81;100.00;101630.88;6016479;28;20041;-67
2022/10/04 03:33:27;;;;;;;5.15;1.75;;;;;;;9.89;100.00;101633.78;6001745;28;20038;-67
2022/10/04 03:36:23;;;;;;;8.57;1.63;;;;;;;9.92;100.00;101639.66;6002817;28;20039;-67
2022/10/04 03:39:27;;;;;;;8.50;1.58;;;;;;;9.94;100.00;101619.22;6003409;28;20474;-67
2022/10/04 03:42:25;;;;;;;3.85;2.00;;;;;;;9.95;100.00;101633.28;6018190;28;20038;-67
2022/10/04 03:45:21;;;;;;;7.15;1.83;;;;;;;9.93;100.00;101622.81;6022926;28;20041;-67
2022/10/04 03:48:26;;;;;;;10.10;2.78;;;;;;;9.99;100.00;101634.75;6015994;28;20145;-67
2022/10/04 03:51:23;;;;;;;8.25;2.17;;;;;;;9.94;100.00;101618.34;6001265;28;20042;-67
2022/10/04 03:54:22;;;;;;;11.63;1.90;;;;;;;10.05;100.00;101631.63;6003016;28;20060;-67
2022/10/04 03:57:17;;;;;;;4.68;1.63;;;;;;;9.94;100.00;101615.72;6002860;28;20093;-67
2022/10/04 04:00:16;;;;;;;5.38;1.50;;;;;;;10.17;100.00;101622.72;6005416;28;20482;-67
2022/10/04 04:03:15;;;;;;;9.18;2.08;;;;;;;10.05;100.00;101613.06;5998257;28;20105;-67
2022/10/04 04:06:14;;;;;;;5.35;1.80;;;;;;;10.02;100.00;101618.59;6002684;28;20384;-67
2022/10/04 04:09:19;;;;;;;8.75;1.75;;;;;;;10.16;100.00;101632.47;6001772;28;20513;-67
2022/10/04 04:12:21;;;;;;;4.03;1.30;;;;;;;10.05;100.00;101618.38;6000749;28;20038;-67
2022/10/04 04:15:17;;;;;;;5.10;1.38;;;;;;;10.06;100.00;101622.69;6021414;28;20034;-67
2022/10/04 04:18:16;;;;;;;5.97;1.48;;;;;;;9.95;100.00;101609.44;6025843;28;20073;-67
2022/10/04 04:21:17;;;;;;;5.43;1.40;;;;;;;9.98;100.00;101612.69;6017624;28;20041;-66
2022/10/04 04:24:26;;;;;;;7.00;1.80;;;;;;;10.05;100.00;101623.66;6002233;28;20031;-66
2022/10/04 04:27:24;;;;;;;3.67;1.40;;;;;;;10.05;100.00;101618.38;6000830;28;20118;-66
2022/10/04 04:30:19;;;;;;;5.20;1.15;;;;;;;10.12;100.00;101630.16;6011582;28;20112;-66
2022/10/04 04:33:28;;;;;;;5.10;1.40;;;;;;;10.19;100.00;101609.34;6024295;28;20036;-66
2022/10/04 04:36:24;;;;;;;5.50;1.40;;;;;;;10.27;100.00;101617.56;6017658;28;20638;-66
2022/10/04 04:39:33;;;;;;;5.18;1.75;;;;;;;10.05;100.00;101600.66;6001752;28;20038;-67
2022/10/04 04:42:32;;;;;;;5.68;1.77;;;;;;;10.20;100.00;101611.03;6001368;28;20041;-66
2022/10/04 04:45:29;;;;;;;8.52;2.10;;;;;;;10.19;100.00;101604.91;6000553;28;20046;-66
2022/10/04 04:48:25;;;;;;;11.40;2.00;;;;;;;10.13;100.00;101595.63;6000627;28;20042;-66
2022/10/04 04:51:22;;;;;;;8.13;1.77;;;;;;;10.18;100.00;101603.22;6007197;28;20034;-66
2022/10/04 04:54:21;;;;;;;4.55;1.45;;;;;;;10.28;100.00;101603.31;6018005;28;20106;-66
2022/10/04 04:57:16;;;;;;;6.93;1.75;;;;;;;10.29;100.00;101599.72;5999962;28;20347;-66
2022/10/04 05:00:18;;;;;;;5.97;1.67;;;;;;;10.16;100.00;101608.63;6000929;28;20137;-66
2022/10/04 05:03:18;;;;;;;7.75;1.65;;;;;;;9.94;100.00;101591.88;6003518;28;20261;-66
2022/10/04 05:06:26;;;;;;;;;;;;;;;10.02;100.00;101615.94;6006250;28;20054;-66
2022/10/04 05:09:33;;;;;;;8.38;1.80;;;;;;;10.20;100.00;101616.31;6001722;28;19957;-66
2022/10/04 05:12:28;;;;;;;5.80;1.60;;;;;;;9.97;100.00;101611.00;6000711;28;20046;-66
2022/10/04 05:15:25;;;;;;;8.25;1.67;;;;;;;9.96;100.00;101608.47;5999800;28;20118;-66
2022/10/04 05:18:29;;;;;;;9.35;1.50;;;;;;;9.96;100.00;101624.38;6011378;28;20061;-66
2022/10/04 05:21:27;;;;;;;5.20;1.88;;;;;;;9.91;100.00;101615.94;5993241;28;20037;-66
2022/10/04 05:24:46;;;;;;;6.45;1.58;;;;;;;10.04;100.00;101621.97;6000407;28;20105;-67
2022/10/04 05:27:43;;;;;;;5.43;1.63;;;;;;;9.93;100.00;101620.16;5999816;28;20042;-66
2022/10/04 05:30:41;;;;;;;7.57;1.67;;;;;;;9.96;100.00;101629.69;6013020;28;20041;-68
2022/10/04 05:33:44;;;;;;;12.73;2.40;;;;;;;10.07;100.00;101634.97;6001850;28;20118;-68
2022/10/04 05:36:46;;;;;;;9.30;1.92;;;;;;;10.20;100.00;101638.38;5999956;28;20046;-67
2022/10/04 05:39:48;;;;;;;6.95;1.38;;;;;;;10.14;100.00;101636.22;6018509;28;20068;-68
2022/10/04 05:42:48;;;;;;;9.40;1.48;;;;;;;10.08;100.00;101621.59;5994416;28;20042;-68
2022/10/04 05:45:44;;;;;;;6.53;1.40;;;;;;;10.02;100.00;101631.84;6000159;28;20470;-67
2022/10/04 05:48:42;;;;;;;5.55;1.50;;;;;;;10.11;100.00;101615.22;6013094;28;20085;-67
2022/10/04 05:51:55;;;;;;;3.53;1.45;;;;;;;10.19;100.00;101633.22;6021138;28;20119;-66
2022/10/04 05:55:36;;;;;;;7.20;1.70;;;;;;;10.19;100.00;101631.41;5999640;28;20031;-68
2022/10/04 05:58:38;;;;;;;5.18;1.75;;;;;;;10.07;100.00;101611.97;5991596;28;20074;-68
2022/10/04 06:01:45;;;;;;;8.02;1.25;;;;;;;10.20;100.00;101622.47;5999320;28;20039;-66
2022/10/04 06:05:15;;;;;;;5.18;1.67;;;;;;;10.18;100.00;101619.13;5992571;28;20149;-66
2022/10/04 06:08:43;;;;;;;7.25;1.73;;;;;;;10.20;100.00;101624.28;5991708;28;20035;-68
2022/10/04 06:12:28;;;;;;;8.43;2.42;;;;;;;10.21;100.00;101621.53;5998413;28;20039;-68
2022/10/04 06:15:40;;;;;;;5.03;2.13;;;;;;;10.23;100.00;101632.84;5997470;28;20126;-66
2022/10/04 06:18:54;;;;;;;6.93;1.75;;;;;;;10.16;100.00;101631.66;5999786;28;20022;-66
2022/10/04 06:21:50;;;;;;;4.30;1.30;;;;;;;10.22;100.00;101625.84;5995026;28;20046;-66
2022/10/04 06:25:08;;;;;;;4.53;1.60;;;;;;;10.17;100.00;101614.75;5999365;28;20042;-66
2022/10/04 06:28:09;;;;;;;7.20;1.70;;;;;;;10.33;100.00;101627.66;5996586;28;20034;-68
2022/10/04 06:31:18;;;;;;;6.03;1.90;;;;;;;10.19;100.00;101626.13;5998613;28;20439;-66
2022/10/04 06:34:30;;;;;;;9.55;1.73;;;;;;;10.32;100.00;101641.88;5999692;28;20034;-67
2022/10/04 06:37:51;;;;;;;7.85;2.53;;;;;;;10.30;100.00;101626.06;5988083;28;20086;-66
2022/10/04 06:41:11;;;;;;;3.40;1.70;;;;;;;10.48;100.00;101648.50;6002807;28;20030;-66
2022/10/04 06:44:36;;;;;;;7.43;1.70;;;;;;;10.57;100.00;101646.91;6013554;28;20366;-66
2022/10/04 06:47:32;;;;;;;3.63;1.70;;;;;;;10.61;100.00;101651.84;6008176;28;20042;-66
2022/10/04 06:50:52;;;;;;;10.17;2.10;;;;;;;10.72;100.00;101651.81;5997973;28;20537;-66
2022/10/04 06:54:06;;;;;;;5.55;1.70;;;;;;;10.69;99.81;101652.06;5997559;28;20065;-67
2022/10/04 06:57:04;;;;;;;5.60;1.98;;;;;;;10.82;99.74;101651.09;5991477;28;20026;-67
2022/10/04 07:00:18;;;;;;;4.15;1.38;;;;;;;10.88;99.60;101656.72;5998035;28;20027;-67
2022/10/04 07:03:23;;;;;;;4.47;1.50;;;;;;;10.87;98.13;101641.75;6008102;28;20471;-67
2022/10/04 07:06:26;;;;;;;9.38;1.88;;;;;;;10.92;98.29;101647.56;5996452;28;20037;-67
2022/10/04 07:09:26;;;;;;;7.70;1.50;;;;;;;11.04;97.68;101656.31;5997560;28;20472;-67
2022/10/04 07:12:22;;;;;;;7.03;1.73;;;;;;;10.96;97.69;101650.78;6005425;28;20050;-67
2022/10/04 07:15:21;;;;;;;5.85;1.52;;;;;;;10.96;97.82;101637.53;6002398;28;20035;-66
2022/10/04 07:18:30;;;;;;;5.32;2.15;;;;;;;11.13;97.79;101656.41;6013186;28;20027;-67
2022/10/04 07:21:36;;;;;;;7.97;1.73;;;;;;;11.19;97.34;101655.06;6013260;28;20402;-67
2022/10/04 07:24:49;;;;;;;6.03;1.40;;;;;;;11.26;96.92;101653.56;5997480;28;20386;-67
2022/10/04 07:31:26;;;;;;;5.93;2.00;;;;;;;11.34;95.85;101653.78;6003449;28;20402;-66
2022/10/04 07:34:27;;;;;;;8.60;1.67;;;;;;;11.46;96.07;101633.34;5998979;28;20039;-67
2022/10/04 07:37:24;;;;;;;5.35;1.77;;;;;;;11.74;94.06;101632.72;5996944;28;20396;-67
2022/10/04 07:40:30;;;;;;;3.70;1.60;;;;;;;11.87;93.93;101643.97;5995822;28;20173;-66
2022/10/04 07:43:29;;;;;;;6.30;2.08;;;;;;;11.82;92.50;101623.09;5997461;28;20042;-66
2022/10/04 07:46:51;;;;;;;9.40;2.50;;;;;;;12.17;91.76;101637.84;5981932;28;20130;-67
2022/10/04 07:49:49;;;;;;;10.52;2.05;;;;;;;12.17;90.32;101638.69;6017138;28;20030;-67
2022/10/04 07:53:08;;;;;;;3.10;1.58;;;;;;;12.47;89.92;101648.44;6000077;28;20045;-67
2022/10/04 07:56:16;;;;;;;4.30;1.60;;;;;;;13.10;87.45;101648.03;5998866;28;20042;-67
2022/10/04 07:59:37;;;;;;;8.85;2.78;;;;;;;13.50;84.42;101636.38;6020407;28;20044;-67
2022/10/04 08:02:44;;;;;;;10.07;1.80;;;;;;;13.84;82.22;101650.91;6001919;28;20034;-67
2022/10/04 08:05:42;;;;;;;5.13;1.48;;;;;;;14.03;81.87;101634.84;5990461;28;20038;-67
2022/10/04 08:09:15;;;;;;;6.15;1.70;;;;;;;14.16;80.15;101650.50;5995780;28;20035;-67
2022/10/04 08:12:21;;;;;;;5.45;1.85;;;;;;;14.06;80.96;101650.56;6002695;28;20037;-67
2022/10/04 08:15:33;;;;;;;4.53;1.52;;;;;;;14.12;80.43;101649.16;6012400;28;20042;-67
2022/10/04 08:18:42;;;;;;;6.22;1.60;;;;;;;13.94;80.29;101637.56;6019376;28;20034;-67
2022/10/04 08:21:49;;;;;;;3.80;1.52;;;;;;;14.01;81.69;101647.50;6012474;28;20459;-67
2022/10/04 08:25:00;;;;;;;4.90;1.63;;;;;;;14.13;80.12;101646.31;6004009;28;20109;-67
2022/10/04 08:31:33;;;;;;;5.55;1.70;;;;;;;14.63;77.33;101648.66;6021553;28;20026;-67
2022/10/04 08:34:43;;;;;;;7.78;1.70;;;;;;;14.75;76.88;101642.13;6003929;28;20045;-68
2022/10/04 08:38:17;;;;;;;11.10;1.77;;;;;;;14.64;77.83;101645.00;6000365;28;20043;-67
2022/10/04 08:41:34;;;;;;;8.25;1.75;;;;;;;14.68;77.60;101655.22;5999026;28;20027;-67
2022/10/04 08:44:51;;;;;;;5.55;1.50;;;;;;;14.86;78.61;101641.91;6021880;28;20034;-68
2022/10/04 08:47:57;;;;;;;12.07;2.13;;;;;;;15.01;77.55;101632.38;6024750;28;20046;-67
2022/10/04 08:51:38;;;;;;;4.70;1.63;;;;;;;15.32;73.81;101655.06;6006197;28;20505;-67
2022/10/04 08:55:19;;;;;;;6.43;1.83;;;;;;;15.44;73.79;101650.28;5954301;28;20036;-67
2022/10/04 08:58:28;;;;;;;5.25;1.42;;;;;;;15.75;73.42;101646.25;6000057;28;20027;-67
2022/10/04 09:01:50;;;;;;;7.95;1.88;;;;;;;15.74;71.81;101649.06;6000521;28;20031;-67
2022/10/04 09:04:48;;;;;;;6.32;1.70;;;;;;;15.83;72.54;101650.81;5988568;28;20035;-67
2022/10/04 09:08:06;;;;;;;8.95;1.67;;;;;;;16.01;70.20;101648.91;6000984;28;20129;-66
2022/10/04 09:11:40;;;;;;;7.18;1.70;;;;;;;15.97;70.27;101647.56;6009888;28;20477;-67
2022/10/04 09:15:03;;;;;;;8.32;1.83;;;;;;;16.06;71.69;101643.94;5990205;28;20046;-67
2022/10/04 09:18:02;;;;;;;6.05;1.38;;;;;;;16.47;70.77;101644.97;5997815;28;20033;-66
2022/10/04 09:21:24;;;;;;;7.10;1.52;;;;;;;16.74;68.26;101635.88;6005268;28;20042;-67
2022/10/04 09:24:44;;;;;;;5.78;1.75;;;;;;;16.73;68.28;101639.56;5990357;28;20043;-67
2022/10/04 09:27:51;;;;;;;6.32;1.63;;;;;;;16.56;67.42;101633.31;6002253;28;20042;-67
2022/10/04 09:31:14;;;;;;;5.80;1.50;;;;;;;16.57;69.74;101635.00;5998166;28;20481;-67
2022/10/04 09:34:31;;;;;;;9.18;1.77;;;;;;;16.43;67.99;101628.38;5995975;28;20038;-67
2022/10/04 09:37:54;;;;;;;7.15;2.03;;;;;;;16.30;68.92;101622.66;5999760;28;20031;-67
2022/10/04 09:41:11;;;;;;;9.18;1.73;;;;;;;16.26;68.45;101631.97;5999317;28;20147;-67
2022/10/04 09:44:32;;;;;;;5.90;1.67;;;;;;;16.41;68.78;101638.44;6000858;28;20031;-67
2022/10/04 09:47:30;;;;;;;8.70;1.85;;;;;;;16.26;67.67;101615.91;5999780;28;20075;-67
2022/10/04 09:50:51;;;;;;;7.35;1.77;;;;;;;16.25;69.85;101624.94;5998291;28;20130;-67
2022/10/04 09:54:20;;;;;;;6.22;1.67;;;;;;;16.46;68.50;101627.22;5998002;28;20150;-67
2022/10/04 09:57:40;;;;;;;7.80;1.67;;;;;;;16.82;68.61;101612.63;5999199;28;20636;-67
2022/10/04 10:00:46;;;;;;;6.90;1.90;;;;;;;16.92;67.73;101601.75;5997462;28;20078;-67
2022/10/04 10:03:53;;;;;;;8.32;1.90;;;;;;;16.95;68.35;101622.88;5996392;28;20033;-67
2022/10/04 10:06:58;;;;;;;7.63;1.58;;;;;;;17.06;66.29;101607.31;5993985;28;20047;-67
2022/10/04 10:16:59;;;;;;;7.72;1.80;;;;;;;17.39;66.90;101613.53;6002281;28;20478;-67
2022/10/04 10:20:34;;;;;;;7.95;1.65;;;;;;;17.38;65.55;101609.16;6013559;28;20039;-67
2022/10/04 10:23:42;;;;;;;3.72;1.85;;;;;;;16.72;67.17;101616.44;5998048;28;20065;-67
2022/10/04 10:27:23;;;;;;;7.28;1.75;;;;;;;16.71;69.17;101604.91;5999360;28;20030;-67
2022/10/04 10:30:24;;;;;;;10.32;1.67;;;;;;;16.99;66.51;101603.59;5949321;29;20050;-67
2022/10/04 10:33:31;;;;;;;6.78;1.75;;;;;;;17.01;66.42;101603.44;5949510;29;20035;-67
2022/10/04 10:36:38;;;;;;;6.95;1.75;;;;;;;16.81;67.30;101610.09;5999426;28;20046;-67
2022/10/04 10:39:57;;;;;;;8.90;1.70;;;;;;;17.13;66.49;101594.06;5997494;28;20218;-67
2022/10/04 10:43:17;;;;;;;7.68;2.10;;;;;;;17.26;65.15;101607.81;6000903;28;20034;-67
2022/10/04 10:46:20;;;;;;;5.72;1.52;;;;;;;17.04;66.59;101600.44;5998814;28;20037;-67
2022/10/04 10:49:54;;;;;;;6.10;1.80;;;;;;;17.33;65.14;101590.06;6000556;28;20114;-67
2022/10/04 10:53:14;;;;;;;5.38;2.05;;;;;;;17.38;64.25;101602.94;5996823;28;20086;-67
2022/10/04 10:56:25;;;;;;;5.65;1.80;;;;;;;17.68;63.59;101594.22;5997561;28;20041;-67
2022/10/04 10:59:50;;;;;;;7.45;1.60;;;;;;;17.58;65.05;101582.84;5996849;28;20062;-67
2022/10/04 11:02:51;;;;;;;6.22;1.40;;;;;;;17.79;63.90;101584.00;5998141;28;20069;-67
2022/10/04 11:06:25;;;;;;;5.10;2.08;;;;;;;17.50;64.68;101588.19;5997835;28;20038;-66
2022/10/04 11:09:47;;;;;;;4.78;1.70;;;;;;;17.42;64.45;101583.66;5996459;28;20057;-67
2022/10/04 11:12:48;;;;;;;5.45;1.92;;;;;;;17.68;64.30;101589.72;5998173;28;20035;-67
2022/10/04 11:16:06;;;;;;;4.90;1.40;;;;;;;17.37;63.37;101588.69;6002318;28;20039;-67
2022/10/04 11:19:19;;;;;;;3.42;1.25;;;;;;;17.70;61.35;101571.59;5988639;28;20038;-67
2022/10/04 11:22:43;;;;;;;6.18;1.60;;;;;;;17.39;63.46;101573.31;5988463;28;20061;-66
2022/10/04 11:26:04;;;;;;;4.10;1.50;;;;;;;17.61;62.80;101571.78;5998351;28;20034;-67
2022/10/04 11:29:11;;;;;;;4.18;1.45;;;;;;;17.67;62.36;101561.19;5997514;28;20039;-67
2022/10/04 11:32:44;;;;;;;3.42;1.33;;;;;;;17.94;60.95;101545.72;5985844;28;20038;-67
2022/10/04 11:36:18;;;;;;;4.47;1.55;;;;;;;17.79;61.18;101551.78;5990622;28;20343;-67
2022/10/04 11:39:32;;;;;;;5.68;1.48;;;;;;;17.67;60.26;101555.84;5993395;28;20035;-67
2022/10/04 11:42:30;;;;;;;5.93;1.80;;;;;;;17.47;60.97;101551.00;5996371;28;20395;-66
2022/10/04 11:45:53;;;;;;;4.25;1.30;;;;;;;17.65;60.35;101548.97;5998588;28;20042;-67
2022/10/04 11:49:09;;;;;;;5.38;1.67;;;;;;;17.99;60.03;101535.28;5996458;28;20475;-67
2022/10/04 11:52:35;;;;;;;5.72;1.35;;;;;;;17.92;59.94;101542.34;5998250;28;20041;-67
2022/10/04 11:55:57;;;;;;;5.00;1.58;;;;;;;17.71;61.78;101522.31;6000835;28;20619;-67
2022/10/04 11:59:26;;;;;;;4.70;1.38;;;;;;;18.15;59.62;101521.78;6002510;28;20474;-67
2022/10/04 12:03:04;;;;;;;6.53;1.60;;;;;;;18.23;59.21;101519.06;6005228;28;20039;-67
2022/10/04 12:06:13;;;;;;;4.97;1.67;;;;;;;18.14;59.06;101518.25;6000541;28;20073;-67
2022/10/04 12:09:39;;;;;;;3.65;1.30;;;;;;;18.24;57.80;101520.72;6002801;28;20039;-67
2022/10/04 12:13:13;;;;;;;4.70;1.60;;;;;;;18.31;59.18;101517.16;5991507;28;20037;-67
2022/10/04 12:16:32;;;;;;;4.60;1.50;;;;;;;18.39;60.50;101518.97;5998416;28;20923;-67
2022/10/04 12:19:53;;;;;;;5.03;1.63;;;;;;;18.27;57.81;101512.31;6013575;28;20041;-67
2022/10/04 12:23:16;;;;;;;4.88;1.70;;;;;;;18.03;59.41;101523.16;5999265;28;20053;-67
2022/10/04 12:26:49;;;;;;;5.35;1.63;;;;;;;17.84;59.44;101524.44;6001789;28;20039;-66
2022/10/04 12:30:32;;;;;;;4.68;1.70;;;;;;;18.29;59.17;101508.44;5997639;28;20038;-67
2022/10/04 12:33:41;;;;;;;6.35;1.70;;;;;;;18.18;58.67;101499.97;5994199;28;20043;-67
2022/10/04 12:36:42;;;;;;;5.15;1.58;;;;;;;18.10;58.79;101491.94;6021444;28;20153;-67
2022/10/04 12:39:56;;;;;;;6.32;1.90;;;;;;;17.96;58.00;101488.16;6016012;28;20407;-67
2022/10/04 12:43:03;;;;;;;4.43;1.70;;;;;;;17.90;58.82;101463.84;6001121;28;20541;-67
2022/10/04 12:46:20;;;;;;;7.00;2.15;;;;;;;18.07;59.12;101476.19;6006596;28;20042;-67
2022/10/04 12:49:38;;;;;;;6.47;2.17;;;;;;;18.14;57.90;101461.88;6021204;28;20367;-67
2022/10/04 12:52:49;;;;;;;5.05;1.73;;;;;;;18.09;58.00;101458.91;5997840;28;20070;-67
2022/10/04 12:55:53;;;;;;;3.90;1.88;;;;;;;17.87;58.26;101457.00;6000477;28;20038;-67
2022/10/04 12:59:07;;;;;;;5.00;1.98;;;;;;;18.16;56.55;101449.09;6000773;28;20035;-67
2022/10/04 13:02:35;;;;;;;6.65;1.83;;;;;;;18.30;57.42;101448.34;6002262;28;20038;-67
2022/10/04 13:05:46;;;;;;;7.97;1.83;;;;;;;18.62;56.75;101433.03;5999322;28;20042;-67
2022/10/04 13:08:59;;;;;;;3.50;1.65;;;;;;;18.60;55.75;101445.81;6010708;28;20035;-67
2022/10/04 13:12:03;;;;;;;4.25;1.80;;;;;;;18.92;55.01;101437.47;5999298;28;20097;-67
2022/10/04 13:15:19;;;;;;;9.82;1.80;;;;;;;18.77;55.22;101436.59;6001408;28;20070;-67
2022/10/04 13:18:26;;;;;;;5.07;1.77;;;;;;;18.73;57.39;101446.88;6000209;28;20166;-67
2022/10/04 13:21:40;;;;;;;4.43;1.92;;;;;;;18.14;58.81;101445.78;5999762;28;20039;-66
2022/10/04 13:24:57;;;;;;;7.70;2.42;;;;;;;17.85;60.08;101434.88;6005872;28;20089;-67
2022/10/04 13:28:23;;;;;;;7.47;2.17;;;;;;;18.01;60.87;101444.69;6001257;28;20033;-66
2022/10/04 13:31:33;;;;;;;6.95;3.08;;;;;;;18.47;58.83;101430.28;5997662;28;20043;-67
2022/10/04 13:34:35;;;;;;;7.13;2.40;;;;;;;18.49;58.20;101433.63;6003820;28;20038;-67
2022/10/04 13:37:51;;;;;;;6.80;2.80;;;;;;;17.95;59.06;101429.28;6023450;28;20042;-66
2022/10/04 13:40:55;;;;;;;7.15;2.00;;;;;;;17.78;59.64;101424.00;6012130;28;20546;-66
2022/10/04 13:44:21;;;;;;;6.05;2.35;;;;;;;17.97;58.79;101416.50;5999968;28;20046;-66
2022/10/04 13:47:33;;;;;;;6.85;1.92;;;;;;;17.94;59.17;101411.50;6000617;28;20015;-67
2022/10/04 13:50:40;;;;;;;4.45;1.75;;;;;;;18.18;58.62;101408.66;6007672;28;20062;-66
2022/10/04 13:57:53;;;;;;;4.40;2.00;;;;;;;18.30;58.56;101408.06;5997519;28;20031;-67
2022/10/04 14:01:01;;;;;;;6.15;2.20;;;;;;;18.11;57.97;101415.75;5991563;28;20643;-66
2022/10/04 14:04:08;;;;;;;5.95;2.25;;;;;;;17.87;57.79;101413.22;6000343;28;20039;-66
2022/10/04 14:07:08;;;;;;;9.52;2.55;;;;;;;17.79;57.92;101406.88;5997503;28;20031;-67
2022/10/04 14:10:21;;;;;;;6.55;2.20;;;;;;;17.94;57.65;101395.41;6004806;28;20038;-66
2022/10/04 14:13:23;;;;;;;;;;;;;;;17.80;57.61;101405.06;6000633;28;20038;-66
2022/10/04 14:16:39;;;;;;;4.57;1.90;;;;;;;17.88;58.18;101393.44;6001964;28;20329;-66
2022/10/04 14:20:06;;;;;;;12.43;2.20;;;;;;;18.07;56.99;101406.41;6000064;28;20030;-67
2022/10/04 14:23:29;;;;;;;6.95;1.90;;;;;;;17.91;57.79;101398.44;5983352;28;20047;-66
2022/10/04 14:26:42;;;;;;;4.70;1.70;;;;;;;18.21;56.56;101393.03;6018607;28;20113;-66
2022/10/04 14:29:59;;;;;;;6.85;2.28;;;;;;;18.09;56.44;101388.25;6022052;28;20041;-66
2022/10/04 14:33:20;;;;;;;4.78;2.10;;;;;;;17.94;57.05;101390.03;5993904;28;20062;-66
2022/10/04 14:36:45;;;;;;;4.30;1.90;;;;;;;17.87;57.58;101381.84;6014469;28;20038;-67
2022/10/04 14:40:00;;;;;;;4.60;2.35;;;;;;;17.81;57.46;101375.34;6021303;28;20034;-67
2022/10/04 14:43:35;;;;;;;8.60;1.95;;;;;;;17.89;57.34;101344.94;5984730;28;20115;-67
2022/10/04 14:46:48;;;;;;;7.00;2.05;;;;;;;17.73;58.26;101356.59;6000212;28;20035;-66
2022/10/04 14:49:59;;;;;;;3.45;1.75;;;;;;;17.84;57.94;101356.22;5999328;28;20090;-67
2022/10/04 14:53:56;;;;;;;8.30;2.78;;;;;;;17.98;57.17;101345.72;6013121;28;20039;-66
2022/10/04 14:57:23;;;;;;;3.53;1.70;;;;;;;18.16;56.35;101347.09;5936835;29;20659;-66